sensor_id;sensor_type;location;lat;lon;timestamp;P1;durP1;ratioP1;P2;durP2;ratioP2
6269;SDS011;3168;51.684;6.954;2023-04-01T00:01:46;6.50;;;1.40;;
6269;SDS011;3168;51.684;6.954;2023-04-01T00:04:12;1.13;;;1.13;;
6269;SDS011;3168;51.684;6.954;2023-04-01T00:06:38;1.93;;;1.50;;
6269;SDS011;3168;51.684;6.954;2023-04-01T00:09:03;1.50;;;1.40;;
6269;SDS011;3168;51.684;6.954;2023-04-01T00:11:29;2.23;;;2.13;;
6269;SDS011;3168;51.684;6.954;2023-04-01T00:13:55;1.70;;;1.60;;
6269;SDS011;3168;51.684;6.954;2023-04-01T00:16:21;1.83;;;1.73;;
6269;SDS011;3168;51.684;6.954;2023-04-01T00:18:47;6.17;;;1.87;;
6269;SDS011;3168;51.684;6.954;2023-04-01T00:21:13;1.40;;;1.40;;
6269;SDS011;3168;51.684;6.954;2023-04-01T00:23:38;1.40;;;1.40;;
6269;SDS011;3168;51.684;6.954;2023-04-01T00:26:04;5.03;;;2.17;;
6269;SDS011;3168;51.684;6.954;2023-04-01T00:28:31;1.27;;;1.27;;
6269;SDS011;3168;51.684;6.954;2023-04-01T00:30:57;5.00;;;2.00;;
6269;SDS011;3168;51.684;6.954;2023-04-01T00:33:22;5.87;;;2.73;;
6269;SDS011;3168;51.684;6.954;2023-04-01T00:35:48;1.80;;;1.80;;
6269;SDS011;3168;51.684;6.954;2023-04-01T00:38:14;2.10;;;2.00;;
6269;SDS011;3168;51.684;6.954;2023-04-01T00:40:42;2.00;;;1.93;;
6269;SDS011;3168;51.684;6.954;2023-04-01T00:43:12;2.87;;;2.77;;
6269;SDS011;3168;51.684;6.954;2023-04-01T00:45:37;1.90;;;1.80;;
6269;SDS011;3168;51.684;6.954;2023-04-01T00:48:05;1.90;;;1.80;;
6269;SDS011;3168;51.684;6.954;2023-04-01T00:50:29;3.33;;;2.00;;
6269;SDS011;3168;51.684;6.954;2023-04-01T00:52:56;10.13;;;2.77;;
6269;SDS011;3168;51.684;6.954;2023-04-01T00:55:22;3.53;;;2.50;;
6269;SDS011;3168;51.684;6.954;2023-04-01T00:57:48;2.33;;;2.17;;
6269;SDS011;3168;51.684;6.954;2023-04-01T01:00:14;1.50;;;1.50;;
6269;SDS011;3168;51.684;6.954;2023-04-01T01:02:41;2.23;;;1.53;;
6269;SDS011;3168;51.684;6.954;2023-04-01T01:05:06;1.73;;;1.47;;
6269;SDS011;3168;51.684;6.954;2023-04-01T01:07:55;4.30;;;1.53;;
6269;SDS011;3168;51.684;6.954;2023-04-01T01:10:26;1.40;;;1.30;;
6269;SDS011;3168;51.684;6.954;2023-04-01T01:12:53;3.30;;;3.00;;
6269;SDS011;3168;51.684;6.954;2023-04-01T01:15:41;3.83;;;2.63;;
6269;SDS011;3168;51.684;6.954;2023-04-01T01:18:09;3.13;;;2.93;;
6269;SDS011;3168;51.684;6.954;2023-04-01T01:36:48;2.47;;;2.03;;
6269;SDS011;3168;51.684;6.954;2023-04-01T01:39:14;2.73;;;1.63;;
6269;SDS011;3168;51.684;6.954;2023-04-01T01:41:41;1.63;;;1.53;;
6269;SDS011;3168;51.684;6.954;2023-04-01T01:44:06;4.20;;;2.10;;
6269;SDS011;3168;51.684;6.954;2023-04-01T01:46:32;1.27;;;1.27;;
6269;SDS011;3168;51.684;6.954;2023-04-01T01:48:58;2.93;;;1.17;;
6269;SDS011;3168;51.684;6.954;2023-04-01T01:51:24;1.70;;;1.67;;
6269;SDS011;3168;51.684;6.954;2023-04-01T01:53:50;1.87;;;1.70;;
6269;SDS011;3168;51.684;6.954;2023-04-01T01:56:16;1.43;;;1.37;;
6269;SDS011;3168;51.684;6.954;2023-04-01T01:58:45;7.60;;;1.13;;
6269;SDS011;3168;51.684;6.954;2023-04-01T02:01:14;1.40;;;1.40;;
6269;SDS011;3168;51.684;6.954;2023-04-01T02:03:39;2.03;;;1.93;;
6269;SDS011;3168;51.684;6.954;2023-04-01T02:06:06;1.53;;;1.53;;
6269;SDS011;3168;51.684;6.954;2023-04-01T02:08:35;1.20;;;1.20;;
6269;SDS011;3168;51.684;6.954;2023-04-01T02:11:02;1.53;;;1.47;;
6269;SDS011;3168;51.684;6.954;2023-04-01T02:13:31;1.20;;;1.20;;
6269;SDS011;3168;51.684;6.954;2023-04-01T02:15:58;4.87;;;1.93;;
6269;SDS011;3168;51.684;6.954;2023-04-01T02:18:24;1.10;;;1.10;;
6269;SDS011;3168;51.684;6.954;2023-04-01T02:20:50;2.23;;;2.13;;
6269;SDS011;3168;51.684;6.954;2023-04-01T02:23:15;11.30;;;2.73;;
6269;SDS011;3168;51.684;6.954;2023-04-01T02:25:41;1.40;;;1.40;;
6269;SDS011;3168;51.684;6.954;2023-04-01T02:28:07;1.57;;;1.50;;
6269;SDS011;3168;51.684;6.954;2023-04-01T02:30:34;1.97;;;1.97;;
6269;SDS011;3168;51.684;6.954;2023-04-01T02:32:59;1.80;;;1.80;;
6269;SDS011;3168;51.684;6.954;2023-04-01T02:35:25;2.00;;;1.90;;
6269;SDS011;3168;51.684;6.954;2023-04-01T02:37:50;2.20;;;1.40;;
6269;SDS011;3168;51.684;6.954;2023-04-01T02:40:16;1.30;;;1.30;;
6269;SDS011;3168;51.684;6.954;2023-04-01T02:42:42;0.97;;;0.90;;
6269;SDS011;3168;51.684;6.954;2023-04-01T02:45:08;0.97;;;0.97;;
6269;SDS011;3168;51.684;6.954;2023-04-01T02:47:35;0.70;;;0.70;;
6269;SDS011;3168;51.684;6.954;2023-04-01T02:50:01;0.63;;;0.63;;
6269;SDS011;3168;51.684;6.954;2023-04-01T02:52:27;0.63;;;0.63;;
6269;SDS011;3168;51.684;6.954;2023-04-01T02:54:52;0.73;;;0.73;;
6269;SDS011;3168;51.684;6.954;2023-04-01T02:57:18;0.70;;;0.70;;
6269;SDS011;3168;51.684;6.954;2023-04-01T02:59:44;0.67;;;0.67;;
6269;SDS011;3168;51.684;6.954;2023-04-01T03:02:10;1.10;;;1.10;;
6269;SDS011;3168;51.684;6.954;2023-04-01T03:04:35;0.50;;;0.50;;
6269;SDS011;3168;51.684;6.954;2023-04-01T03:07:01;0.60;;;0.60;;
6269;SDS011;3168;51.684;6.954;2023-04-01T03:09:27;0.70;;;0.70;;
6269;SDS011;3168;51.684;6.954;2023-04-01T03:11:53;0.70;;;0.70;;
6269;SDS011;3168;51.684;6.954;2023-04-01T03:14:19;0.60;;;0.60;;
6269;SDS011;3168;51.684;6.954;2023-04-01T03:16:44;1.07;;;0.80;;
6269;SDS011;3168;51.684;6.954;2023-04-01T03:19:10;0.60;;;0.60;;
6269;SDS011;3168;51.684;6.954;2023-04-01T03:21:36;0.60;;;0.60;;
6269;SDS011;3168;51.684;6.954;2023-04-01T03:24:02;0.50;;;0.50;;
6269;SDS011;3168;51.684;6.954;2023-04-01T03:26:28;0.70;;;0.70;;
6269;SDS011;3168;51.684;6.954;2023-04-01T03:28:54;3.23;;;1.07;;
6269;SDS011;3168;51.684;6.954;2023-04-01T03:31:20;0.97;;;0.97;;
6269;SDS011;3168;51.684;6.954;2023-04-01T03:33:45;0.60;;;0.60;;
6269;SDS011;3168;51.684;6.954;2023-04-01T03:36:11;0.50;;;0.50;;
6269;SDS011;3168;51.684;6.954;2023-04-01T03:38:37;0.60;;;0.60;;
6269;SDS011;3168;51.684;6.954;2023-04-01T03:41:03;0.53;;;0.53;;
6269;SDS011;3168;51.684;6.954;2023-04-01T03:43:29;1.67;;;0.70;;
6269;SDS011;3168;51.684;6.954;2023-04-01T03:45:55;1.77;;;1.00;;
6269;SDS011;3168;51.684;6.954;2023-04-01T03:48:20;0.60;;;0.60;;
6269;SDS011;3168;51.684;6.954;2023-04-01T03:50:46;0.80;;;0.60;;
6269;SDS011;3168;51.684;6.954;2023-04-01T03:53:12;0.60;;;0.60;;
6269;SDS011;3168;51.684;6.954;2023-04-01T03:55:38;0.80;;;0.80;;
6269;SDS011;3168;51.684;6.954;2023-04-01T03:58:04;2.10;;;1.77;;
6269;SDS011;3168;51.684;6.954;2023-04-01T04:00:30;0.73;;;0.73;;
6269;SDS011;3168;51.684;6.954;2023-04-01T04:02:56;0.90;;;0.90;;
6269;SDS011;3168;51.684;6.954;2023-04-01T04:05:22;0.87;;;0.77;;
6269;SDS011;3168;51.684;6.954;2023-04-01T04:07:48;0.80;;;0.80;;
6269;SDS011;3168;51.684;6.954;2023-04-01T04:10:14;0.60;;;0.60;;
6269;SDS011;3168;51.684;6.954;2023-04-01T04:12:40;2.03;;;0.93;;
6269;SDS011;3168;51.684;6.954;2023-04-01T04:15:06;0.90;;;0.90;;
6269;SDS011;3168;51.684;6.954;2023-04-01T04:17:33;1.07;;;1.07;;
6269;SDS011;3168;51.684;6.954;2023-04-01T04:19:59;0.80;;;0.80;;
6269;SDS011;3168;51.684;6.954;2023-04-01T04:22:24;0.70;;;0.70;;
6269;SDS011;3168;51.684;6.954;2023-04-01T04:24:50;1.00;;;1.00;;
6269;SDS011;3168;51.684;6.954;2023-04-01T04:27:16;0.70;;;0.70;;
6269;SDS011;3168;51.684;6.954;2023-04-01T04:29:42;0.63;;;0.63;;
6269;SDS011;3168;51.684;6.954;2023-04-01T04:32:08;0.60;;;0.60;;
6269;SDS011;3168;51.684;6.954;2023-04-01T04:34:34;0.93;;;0.90;;
6269;SDS011;3168;51.684;6.954;2023-04-01T04:36:59;1.33;;;1.33;;
6269;SDS011;3168;51.684;6.954;2023-04-01T04:39:25;1.40;;;1.40;;
6269;SDS011;3168;51.684;6.954;2023-04-01T04:41:51;0.90;;;0.90;;
6269;SDS011;3168;51.684;6.954;2023-04-01T04:44:17;1.43;;;1.20;;
6269;SDS011;3168;51.684;6.954;2023-04-01T04:46:43;1.47;;;1.47;;
6269;SDS011;3168;51.684;6.954;2023-04-01T04:49:09;1.33;;;1.23;;
6269;SDS011;3168;51.684;6.954;2023-04-01T04:51:34;1.30;;;1.20;;
6269;SDS011;3168;51.684;6.954;2023-04-01T04:54:01;1.57;;;1.50;;
6269;SDS011;3168;51.684;6.954;2023-04-01T04:56:26;1.47;;;1.47;;
6269;SDS011;3168;51.684;6.954;2023-04-01T04:58:52;1.60;;;1.50;;
6269;SDS011;3168;51.684;6.954;2023-04-01T05:01:18;1.37;;;1.27;;
6269;SDS011;3168;51.684;6.954;2023-04-01T05:03:45;2.85;;;2.00;;
6269;SDS011;3168;51.684;6.954;2023-04-01T05:06:11;2.20;;;1.67;;
6269;SDS011;3168;51.684;6.954;2023-04-01T05:08:36;1.17;;;1.10;;
6269;SDS011;3168;51.684;6.954;2023-04-01T05:11:02;1.07;;;1.07;;
6269;SDS011;3168;51.684;6.954;2023-04-01T05:13:28;1.60;;;1.50;;
6269;SDS011;3168;51.684;6.954;2023-04-01T05:15:54;2.40;;;1.10;;
6269;SDS011;3168;51.684;6.954;2023-04-01T05:18:19;1.23;;;1.23;;
6269;SDS011;3168;51.684;6.954;2023-04-01T05:20:47;1.53;;;1.43;;
6269;SDS011;3168;51.684;6.954;2023-04-01T05:23:12;0.90;;;0.90;;
6269;SDS011;3168;51.684;6.954;2023-04-01T05:25:38;1.40;;;1.30;;
6269;SDS011;3168;51.684;6.954;2023-04-01T05:28:04;1.57;;;1.57;;
6269;SDS011;3168;51.684;6.954;2023-04-01T05:30:30;1.30;;;1.20;;
6269;SDS011;3168;51.684;6.954;2023-04-01T05:32:55;0.90;;;0.90;;
6269;SDS011;3168;51.684;6.954;2023-04-01T05:35:21;5.93;;;1.30;;
6269;SDS011;3168;51.684;6.954;2023-04-01T05:37:47;1.53;;;1.20;;
6269;SDS011;3168;51.684;6.954;2023-04-01T05:40:13;1.23;;;1.23;;
6269;SDS011;3168;51.684;6.954;2023-04-01T05:42:39;1.00;;;1.00;;
6269;SDS011;3168;51.684;6.954;2023-04-01T05:45:05;1.40;;;1.40;;
6269;SDS011;3168;51.684;6.954;2023-04-01T05:47:31;2.13;;;2.03;;
6269;SDS011;3168;51.684;6.954;2023-04-01T05:49:57;1.53;;;1.53;;
6269;SDS011;3168;51.684;6.954;2023-04-01T05:52:23;1.23;;;1.23;;
6269;SDS011;3168;51.684;6.954;2023-04-01T05:54:49;1.40;;;1.40;;
6269;SDS011;3168;51.684;6.954;2023-04-01T05:57:15;1.73;;;1.43;;
6269;SDS011;3168;51.684;6.954;2023-04-01T05:59:40;1.50;;;1.50;;
6269;SDS011;3168;51.684;6.954;2023-04-01T06:02:07;1.90;;;1.80;;
6269;SDS011;3168;51.684;6.954;2023-04-01T06:04:33;1.57;;;1.57;;
6269;SDS011;3168;51.684;6.954;2023-04-01T06:06:58;1.43;;;1.33;;
6269;SDS011;3168;51.684;6.954;2023-04-01T06:09:26;1.30;;;1.20;;
6269;SDS011;3168;51.684;6.954;2023-04-01T06:14:34;1.13;;;1.13;;
6269;SDS011;3168;51.684;6.954;2023-04-01T06:20:12;1.10;;;1.10;;
6269;SDS011;3168;51.684;6.954;2023-04-01T06:22:42;1.37;;;1.37;;
6269;SDS011;3168;51.684;6.954;2023-04-01T06:25:10;1.30;;;1.30;;
6269;SDS011;3168;51.684;6.954;2023-04-01T06:33:13;1.33;;;1.33;;
6269;SDS011;3168;51.684;6.954;2023-04-01T06:38:19;1.77;;;1.77;;
6269;SDS011;3168;51.684;6.954;2023-04-01T06:41:06;1.40;;;1.40;;
6269;SDS011;3168;51.684;6.954;2023-04-01T06:43:37;1.87;;;1.77;;
6269;SDS011;3168;51.684;6.954;2023-04-01T06:46:30;3.80;;;1.87;;
6269;SDS011;3168;51.684;6.954;2023-04-01T06:49:08;2.17;;;2.07;;
6269;SDS011;3168;51.684;6.954;2023-04-01T06:52:22;2.47;;;2.47;;
6269;SDS011;3168;51.684;6.954;2023-04-01T06:54:47;3.43;;;1.77;;
6269;SDS011;3168;51.684;6.954;2023-04-01T06:57:27;2.47;;;2.27;;
6269;SDS011;3168;51.684;6.954;2023-04-01T06:59:53;1.50;;;1.40;;
6269;SDS011;3168;51.684;6.954;2023-04-01T07:02:22;2.10;;;2.00;;
6269;SDS011;3168;51.684;6.954;2023-04-01T07:04:46;2.60;;;2.50;;
6269;SDS011;3168;51.684;6.954;2023-04-01T07:07:14;1.77;;;1.67;;
6269;SDS011;3168;51.684;6.954;2023-04-01T07:09:43;2.00;;;1.90;;
6269;SDS011;3168;51.684;6.954;2023-04-01T07:12:43;1.63;;;1.53;;
6269;SDS011;3168;51.684;6.954;2023-04-01T07:15:04;2.30;;;2.20;;
6269;SDS011;3168;51.684;6.954;2023-04-01T07:17:31;1.47;;;1.47;;
6269;SDS011;3168;51.684;6.954;2023-04-01T07:20:11;2.33;;;2.20;;
6269;SDS011;3168;51.684;6.954;2023-04-01T07:22:40;1.83;;;1.73;;
6269;SDS011;3168;51.684;6.954;2023-04-01T07:25:12;1.60;;;1.60;;
6269;SDS011;3168;51.684;6.954;2023-04-01T07:27:37;2.20;;;2.10;;
6269;SDS011;3168;51.684;6.954;2023-04-01T07:30:06;1.50;;;1.50;;
6269;SDS011;3168;51.684;6.954;2023-04-01T07:32:42;2.10;;;2.00;;
6269;SDS011;3168;51.684;6.954;2023-04-01T07:35:22;2.43;;;2.23;;
6269;SDS011;3168;51.684;6.954;2023-04-01T07:37:58;2.73;;;2.40;;
6269;SDS011;3168;51.684;6.954;2023-04-01T07:40:26;2.10;;;1.93;;
6269;SDS011;3168;51.684;6.954;2023-04-01T07:43:10;1.80;;;1.70;;
6269;SDS011;3168;51.684;6.954;2023-04-01T07:45:40;1.87;;;1.77;;
6269;SDS011;3168;51.684;6.954;2023-04-01T07:48:11;1.43;;;1.40;;
6269;SDS011;3168;51.684;6.954;2023-04-01T07:50:38;1.97;;;1.87;;
6269;SDS011;3168;51.684;6.954;2023-04-01T07:53:36;1.23;;;1.23;;
6269;SDS011;3168;51.684;6.954;2023-04-01T07:55:56;1.47;;;1.47;;
6269;SDS011;3168;51.684;6.954;2023-04-01T07:58:33;3.47;;;3.10;;
6269;SDS011;3168;51.684;6.954;2023-04-01T08:03:55;1.90;;;1.80;;
6269;SDS011;3168;51.684;6.954;2023-04-01T08:06:24;1.57;;;1.53;;
6269;SDS011;3168;51.684;6.954;2023-04-01T08:09:15;1.97;;;1.87;;
6269;SDS011;3168;51.684;6.954;2023-04-01T08:14:31;0.90;;;0.90;;
6269;SDS011;3168;51.684;6.954;2023-04-01T08:17:00;3.23;;;1.80;;
6269;SDS011;3168;51.684;6.954;2023-04-01T08:19:56;1.33;;;1.33;;
6269;SDS011;3168;51.684;6.954;2023-04-01T08:22:41;2.00;;;1.90;;
6269;SDS011;3168;51.684;6.954;2023-04-01T08:25:06;2.10;;;2.00;;
6269;SDS011;3168;51.684;6.954;2023-04-01T08:27:35;1.37;;;1.33;;
6269;SDS011;3168;51.684;6.954;2023-04-01T08:30:36;2.50;;;2.40;;
6269;SDS011;3168;51.684;6.954;2023-04-01T08:32:48;2.17;;;2.07;;
6269;SDS011;3168;51.684;6.954;2023-04-01T08:35:15;3.27;;;2.80;;
6269;SDS011;3168;51.684;6.954;2023-04-01T08:37:40;2.10;;;1.83;;
6269;SDS011;3168;51.684;6.954;2023-04-01T08:43:04;2.90;;;2.70;;
6269;SDS011;3168;51.684;6.954;2023-04-01T08:45:34;3.63;;;3.33;;
6269;SDS011;3168;51.684;6.954;2023-04-01T08:56:12;4.97;;;3.17;;
6269;SDS011;3168;51.684;6.954;2023-04-01T09:00:05;2.60;;;2.50;;
6269;SDS011;3168;51.684;6.954;2023-04-01T09:01:45;7.33;;;2.90;;
6269;SDS011;3168;51.684;6.954;2023-04-01T09:10:05;7.10;;;2.77;;
6269;SDS011;3168;51.684;6.954;2023-04-01T09:12:31;4.13;;;3.87;;
6269;SDS011;3168;51.684;6.954;2023-04-01T09:15:14;1.87;;;1.77;;
6269;SDS011;3168;51.684;6.954;2023-04-01T09:17:51;3.60;;;3.30;;
6269;SDS011;3168;51.684;6.954;2023-04-01T09:20:34;2.70;;;2.00;;
6269;SDS011;3168;51.684;6.954;2023-04-01T09:26:07;2.07;;;1.97;;
6269;SDS011;3168;51.684;6.954;2023-04-01T09:29:48;3.10;;;3.00;;
6269;SDS011;3168;51.684;6.954;2023-04-01T09:31:39;2.13;;;2.03;;
6269;SDS011;3168;51.684;6.954;2023-04-01T09:34:12;3.77;;;3.33;;
6269;SDS011;3168;51.684;6.954;2023-04-01T09:36:38;2.73;;;2.63;;
6269;SDS011;3168;51.684;6.954;2023-04-01T09:41:57;3.33;;;2.97;;
6269;SDS011;3168;51.684;6.954;2023-04-01T09:47:42;1.67;;;1.57;;
6269;SDS011;3168;51.684;6.954;2023-04-01T09:52:49;2.47;;;2.20;;
6269;SDS011;3168;51.684;6.954;2023-04-01T09:55:21;2.80;;;2.70;;
6269;SDS011;3168;51.684;6.954;2023-04-01T09:58:12;2.33;;;2.10;;
6269;SDS011;3168;51.684;6.954;2023-04-01T10:03:17;2.20;;;2.10;;
6269;SDS011;3168;51.684;6.954;2023-04-01T10:08:57;3.53;;;3.23;;
6269;SDS011;3168;51.684;6.954;2023-04-01T10:11:35;2.40;;;2.30;;
6269;SDS011;3168;51.684;6.954;2023-04-01T10:19:42;2.57;;;2.37;;
6269;SDS011;3168;51.684;6.954;2023-04-01T10:25:04;1.73;;;1.63;;
6269;SDS011;3168;51.684;6.954;2023-04-01T10:27:48;1.40;;;1.40;;
6269;SDS011;3168;51.684;6.954;2023-04-01T10:30:36;1.00;;;1.00;;
6269;SDS011;3168;51.684;6.954;2023-04-01T10:33:18;1.23;;;1.23;;
6269;SDS011;3168;51.684;6.954;2023-04-01T10:35:49;1.30;;;1.30;;
6269;SDS011;3168;51.684;6.954;2023-04-01T10:41:16;1.27;;;1.27;;
6269;SDS011;3168;51.684;6.954;2023-04-01T10:43:45;2.00;;;1.90;;
6269;SDS011;3168;51.684;6.954;2023-04-01T10:48:53;1.17;;;1.13;;
6269;SDS011;3168;51.684;6.954;2023-04-01T10:51:43;3.30;;;1.20;;
6269;SDS011;3168;51.684;6.954;2023-04-01T10:55:36;1.23;;;1.13;;
6269;SDS011;3168;51.684;6.954;2023-04-01T10:57:55;1.77;;;1.40;;
6269;SDS011;3168;51.684;6.954;2023-04-01T11:00:18;1.50;;;1.40;;
6269;SDS011;3168;51.684;6.954;2023-04-01T11:03:04;1.60;;;1.50;;
6269;SDS011;3168;51.684;6.954;2023-04-01T11:06:17;1.23;;;1.20;;
6269;SDS011;3168;51.684;6.954;2023-04-01T11:08:48;1.40;;;1.27;;
6269;SDS011;3168;51.684;6.954;2023-04-01T11:17:07;1.03;;;1.03;;
6269;SDS011;3168;51.684;6.954;2023-04-01T11:22:38;0.90;;;0.90;;
6269;SDS011;3168;51.684;6.954;2023-04-01T11:25:07;0.93;;;0.93;;
6269;SDS011;3168;51.684;6.954;2023-04-01T11:28:16;1.30;;;1.20;;
6269;SDS011;3168;51.684;6.954;2023-04-01T11:33:23;0.97;;;0.90;;
6269;SDS011;3168;51.684;6.954;2023-04-01T11:35:59;0.93;;;0.90;;
6269;SDS011;3168;51.684;6.954;2023-04-01T11:41:26;0.90;;;0.90;;
6269;SDS011;3168;51.684;6.954;2023-04-01T11:46:46;1.10;;;1.10;;
6269;SDS011;3168;51.684;6.954;2023-04-01T11:52:13;1.30;;;1.20;;
6269;SDS011;3168;51.684;6.954;2023-04-01T11:54:52;1.00;;;1.00;;
6269;SDS011;3168;51.684;6.954;2023-04-01T11:57:25;1.43;;;1.33;;
6269;SDS011;3168;51.684;6.954;2023-04-01T12:05:23;4.40;;;1.47;;
6269;SDS011;3168;51.684;6.954;2023-04-01T12:08:13;1.67;;;1.53;;
6269;SDS011;3168;51.684;6.954;2023-04-01T12:10:44;1.13;;;1.10;;
6269;SDS011;3168;51.684;6.954;2023-04-01T12:15:52;1.70;;;1.60;;
6269;SDS011;3168;51.684;6.954;2023-04-01T12:18:28;1.70;;;1.60;;
6269;SDS011;3168;51.684;6.954;2023-04-01T12:20:57;2.17;;;1.70;;
6269;SDS011;3168;51.684;6.954;2023-04-01T12:23:33;1.93;;;1.67;;
6269;SDS011;3168;51.684;6.954;2023-04-01T12:26:07;1.40;;;1.30;;
6269;SDS011;3168;51.684;6.954;2023-04-01T12:28:49;1.60;;;1.60;;
6269;SDS011;3168;51.684;6.954;2023-04-01T12:34:13;2.07;;;1.97;;
6269;SDS011;3168;51.684;6.954;2023-04-01T12:36:42;2.00;;;1.90;;
6269;SDS011;3168;51.684;6.954;2023-04-01T12:40:01;2.47;;;2.37;;
6269;SDS011;3168;51.684;6.954;2023-04-01T12:45:16;1.47;;;1.37;;
6269;SDS011;3168;51.684;6.954;2023-04-01T12:48:00;4.83;;;2.20;;
6269;SDS011;3168;51.684;6.954;2023-04-01T12:50:26;2.37;;;2.27;;
6269;SDS011;3168;51.684;6.954;2023-04-01T12:53:01;3.70;;;2.87;;
6269;SDS011;3168;51.684;6.954;2023-04-01T12:55:34;3.03;;;2.33;;
6269;SDS011;3168;51.684;6.954;2023-04-01T12:59:11;1.73;;;1.63;;
6269;SDS011;3168;51.684;6.954;2023-04-01T13:00:56;1.67;;;1.57;;
6269;SDS011;3168;51.684;6.954;2023-04-01T13:04:35;3.87;;;2.50;;
6269;SDS011;3168;51.684;6.954;2023-04-01T13:17:41;3.90;;;2.33;;
6269;SDS011;3168;51.684;6.954;2023-04-01T13:20:36;1.67;;;1.57;;
6269;SDS011;3168;51.684;6.954;2023-04-01T13:23:10;1.97;;;1.87;;
6269;SDS011;3168;51.684;6.954;2023-04-01T13:25:40;2.70;;;2.20;;
6269;SDS011;3168;51.684;6.954;2023-04-01T13:28:09;2.63;;;2.53;;
6269;SDS011;3168;51.684;6.954;2023-04-01T13:30:39;2.40;;;2.30;;
6269;SDS011;3168;51.684;6.954;2023-04-01T13:38:44;2.27;;;2.10;;
6269;SDS011;3168;51.684;6.954;2023-04-01T13:41:29;3.00;;;2.80;;
6269;SDS011;3168;51.684;6.954;2023-04-01T13:44:00;2.77;;;2.60;;
6269;SDS011;3168;51.684;6.954;2023-04-01T13:46:28;1.90;;;1.80;;
6269;SDS011;3168;51.684;6.954;2023-04-01T13:49:00;2.90;;;2.70;;
6269;SDS011;3168;51.684;6.954;2023-04-01T13:51:52;2.50;;;1.97;;
6269;SDS011;3168;51.684;6.954;2023-04-01T13:54:26;2.87;;;2.67;;
6269;SDS011;3168;51.684;6.954;2023-04-01T13:57:13;2.90;;;2.70;;
6269;SDS011;3168;51.684;6.954;2023-04-01T13:59:59;3.53;;;2.80;;
6269;SDS011;3168;51.684;6.954;2023-04-01T14:02:37;3.20;;;3.00;;
6269;SDS011;3168;51.684;6.954;2023-04-01T14:05:02;4.10;;;2.90;;
6269;SDS011;3168;51.684;6.954;2023-04-01T14:08:02;3.07;;;2.97;;
6269;SDS011;3168;51.684;6.954;2023-04-01T14:10:28;2.30;;;2.23;;
6269;SDS011;3168;51.684;6.954;2023-04-01T14:13:03;3.23;;;2.97;;
6269;SDS011;3168;51.684;6.954;2023-04-01T14:15:37;2.63;;;2.33;;
6269;SDS011;3168;51.684;6.954;2023-04-01T14:18:26;2.57;;;2.43;;
6269;SDS011;3168;51.684;6.954;2023-04-01T14:21:26;4.03;;;3.80;;
6269;SDS011;3168;51.684;6.954;2023-04-01T14:23:43;7.20;;;3.10;;
6269;SDS011;3168;51.684;6.954;2023-04-01T14:26:28;2.37;;;2.27;;
6269;SDS011;3168;51.684;6.954;2023-04-01T14:34:53;4.63;;;3.30;;
6269;SDS011;3168;51.684;6.954;2023-04-01T14:37:30;2.67;;;2.47;;
6269;SDS011;3168;51.684;6.954;2023-04-01T14:40:05;2.77;;;2.67;;
6269;SDS011;3168;51.684;6.954;2023-04-01T14:42:36;3.90;;;3.60;;
6269;SDS011;3168;51.684;6.954;2023-04-01T14:48:56;2.90;;;2.80;;
6269;SDS011;3168;51.684;6.954;2023-04-01T14:50:40;2.63;;;2.43;;
6269;SDS011;3168;51.684;6.954;2023-04-01T14:52:59;3.30;;;3.10;;
6269;SDS011;3168;51.684;6.954;2023-04-01T14:55:27;4.77;;;3.20;;
6269;SDS011;3168;51.684;6.954;2023-04-01T14:57:58;3.60;;;3.00;;
6269;SDS011;3168;51.684;6.954;2023-04-01T15:00:24;3.23;;;3.03;;
6269;SDS011;3168;51.684;6.954;2023-04-01T15:02:56;3.43;;;3.13;;
6269;SDS011;3168;51.684;6.954;2023-04-01T15:08:23;3.17;;;2.97;;
6269;SDS011;3168;51.684;6.954;2023-04-01T15:10:53;2.17;;;2.07;;
6269;SDS011;3168;51.684;6.954;2023-04-01T15:13:58;7.57;;;3.20;;
6269;SDS011;3168;51.684;6.954;2023-04-01T15:19:14;7.73;;;3.03;;
6269;SDS011;3168;51.684;6.954;2023-04-01T15:21:44;2.47;;;2.27;;
6269;SDS011;3168;51.684;6.954;2023-04-01T15:24:20;1.70;;;1.60;;
6269;SDS011;3168;51.684;6.954;2023-04-01T15:26:51;2.17;;;2.07;;
6269;SDS011;3168;51.684;6.954;2023-04-01T15:29:35;12.37;;;2.73;;
6269;SDS011;3168;51.684;6.954;2023-04-01T15:32:02;1.83;;;1.73;;
6269;SDS011;3168;51.684;6.954;2023-04-01T15:34:49;2.17;;;2.07;;
6269;SDS011;3168;51.684;6.954;2023-04-01T15:37:32;5.33;;;3.10;;
6269;SDS011;3168;51.684;6.954;2023-04-01T15:39:57;1.63;;;1.50;;
6269;SDS011;3168;51.684;6.954;2023-04-01T15:42:32;2.23;;;1.60;;
6269;SDS011;3168;51.684;6.954;2023-04-01T15:45:09;2.63;;;2.53;;
6269;SDS011;3168;51.684;6.954;2023-04-01T15:47:39;1.97;;;1.67;;
6269;SDS011;3168;51.684;6.954;2023-04-01T15:50:18;2.77;;;2.57;;
6269;SDS011;3168;51.684;6.954;2023-04-01T15:52:55;3.97;;;3.57;;
6269;SDS011;3168;51.684;6.954;2023-04-01T15:55:42;2.63;;;2.50;;
6269;SDS011;3168;51.684;6.954;2023-04-01T15:58:18;2.37;;;1.87;;
6269;SDS011;3168;51.684;6.954;2023-04-01T16:00:45;2.77;;;2.57;;
6269;SDS011;3168;51.684;6.954;2023-04-01T16:08:52;3.40;;;3.20;;
6269;SDS011;3168;51.684;6.954;2023-04-01T16:11:18;4.37;;;4.00;;
6269;SDS011;3168;51.684;6.954;2023-04-01T16:14:07;3.73;;;3.53;;
6269;SDS011;3168;51.684;6.954;2023-04-01T16:21:49;7.80;;;6.67;;
6269;SDS011;3168;51.684;6.954;2023-04-01T16:24:17;3.97;;;3.67;;
6269;SDS011;3168;51.684;6.954;2023-04-01T16:26:55;3.17;;;2.97;;
6269;SDS011;3168;51.684;6.954;2023-04-01T16:29:27;2.80;;;2.70;;
6269;SDS011;3168;51.684;6.954;2023-04-01T16:31:53;3.50;;;3.30;;
6269;SDS011;3168;51.684;6.954;2023-04-01T16:34:21;3.27;;;2.90;;
6269;SDS011;3168;51.684;6.954;2023-04-01T16:37:01;3.67;;;2.83;;
6269;SDS011;3168;51.684;6.954;2023-04-01T16:39:44;4.10;;;3.67;;
6269;SDS011;3168;51.684;6.954;2023-04-01T16:43:19;3.33;;;3.10;;
6269;SDS011;3168;51.684;6.954;2023-04-01T16:44:55;2.67;;;2.57;;
6269;SDS011;3168;51.684;6.954;2023-04-01T16:47:21;7.10;;;2.77;;
6269;SDS011;3168;51.684;6.954;2023-04-01T16:49:51;5.53;;;4.43;;
6269;SDS011;3168;51.684;6.954;2023-04-01T16:52:17;3.10;;;2.90;;
6269;SDS011;3168;51.684;6.954;2023-04-01T16:54:45;3.37;;;3.17;;
6269;SDS011;3168;51.684;6.954;2023-04-01T16:57:15;2.43;;;2.33;;
6269;SDS011;3168;51.684;6.954;2023-04-01T16:59:44;2.70;;;2.60;;
6269;SDS011;3168;51.684;6.954;2023-04-01T17:02:10;4.00;;;3.63;;
6269;SDS011;3168;51.684;6.954;2023-04-01T17:07:17;2.70;;;2.50;;
6269;SDS011;3168;51.684;6.954;2023-04-01T17:10:53;3.70;;;3.37;;
6269;SDS011;3168;51.684;6.954;2023-04-01T17:12:37;2.57;;;2.47;;
6269;SDS011;3168;51.684;6.954;2023-04-01T17:15:11;3.20;;;3.00;;
6269;SDS011;3168;51.684;6.954;2023-04-01T17:20:26;2.57;;;2.40;;
6269;SDS011;3168;51.684;6.954;2023-04-01T17:23:08;1.80;;;1.77;;
6269;SDS011;3168;51.684;6.954;2023-04-01T17:25:57;2.10;;;2.00;;
6269;SDS011;3168;51.684;6.954;2023-04-01T17:28:31;3.57;;;3.37;;
6269;SDS011;3168;51.684;6.954;2023-04-01T17:35:05;2.00;;;2.00;;
6269;SDS011;3168;51.684;6.954;2023-04-01T17:39:34;2.73;;;2.63;;
6269;SDS011;3168;51.684;6.954;2023-04-01T17:42:10;2.23;;;2.03;;
6269;SDS011;3168;51.684;6.954;2023-04-01T17:44:45;5.37;;;4.97;;
6269;SDS011;3168;51.684;6.954;2023-04-01T17:47:44;4.03;;;3.70;;
6269;SDS011;3168;51.684;6.954;2023-04-01T17:50:23;3.13;;;3.03;;
6269;SDS011;3168;51.684;6.954;2023-04-01T17:52:58;1.90;;;1.90;;
6269;SDS011;3168;51.684;6.954;2023-04-01T17:55:33;2.77;;;2.67;;
6269;SDS011;3168;51.684;6.954;2023-04-01T17:58:15;3.07;;;2.87;;
6269;SDS011;3168;51.684;6.954;2023-04-01T18:00:56;2.45;;;2.35;;
6269;SDS011;3168;51.684;6.954;2023-04-01T18:03:37;2.97;;;2.77;;
6269;SDS011;3168;51.684;6.954;2023-04-01T18:06:11;2.77;;;2.67;;
6269;SDS011;3168;51.684;6.954;2023-04-01T18:08:44;1.63;;;1.63;;
6269;SDS011;3168;51.684;6.954;2023-04-01T18:13:58;1.10;;;1.10;;
6269;SDS011;3168;51.684;6.954;2023-04-01T18:16:40;1.30;;;1.30;;
6269;SDS011;3168;51.684;6.954;2023-04-01T18:19:30;1.57;;;1.57;;
6269;SDS011;3168;51.684;6.954;2023-04-01T18:22:08;1.67;;;1.60;;
6269;SDS011;3168;51.684;6.954;2023-04-01T18:24:26;1.63;;;1.57;;
6269;SDS011;3168;51.684;6.954;2023-04-01T18:27:00;1.27;;;1.27;;
6269;SDS011;3168;51.684;6.954;2023-04-01T18:29:23;1.30;;;1.20;;
6269;SDS011;3168;51.684;6.954;2023-04-01T18:31:56;1.50;;;1.50;;
6269;SDS011;3168;51.684;6.954;2023-04-01T18:34:29;1.53;;;1.53;;
6269;SDS011;3168;51.684;6.954;2023-04-01T18:37:22;1.77;;;1.67;;
6269;SDS011;3168;51.684;6.954;2023-04-01T18:39:49;1.77;;;1.67;;